sensor_id;sensor_type;location;lat;lon;timestamp;P1;durP1;ratioP1;P2;durP2;ratioP2
50769;SDS011;36740;48.698;11.472;2022-12-18T00:00:07;81.95;;;50.42;;
50769;SDS011;36740;48.698;11.472;2022-12-18T00:02:53;55.72;;;43.35;;
50769;SDS011;36740;48.698;11.472;2022-12-18T00:05:46;74.15;;;45.78;;
50769;SDS011;36740;48.698;11.472;2022-12-18T00:08:31;59.72;;;41.15;;
50769;SDS011;36740;48.698;11.472;2022-12-18T00:11:18;46.78;;;39.83;;
50769;SDS011;36740;48.698;11.472;2022-12-18T00:14:04;63.22;;;43.20;;
50769;SDS011;36740;48.698;11.472;2022-12-18T00:16:50;52.95;;;37.70;;
50769;SDS011;36740;48.698;11.472;2022-12-18T00:19:35;71.82;;;42.67;;
50769;SDS011;36740;48.698;11.472;2022-12-18T00:22:21;52.05;;;37.60;;
50769;SDS011;36740;48.698;11.472;2022-12-18T00:25:07;54.50;;;34.35;;
50769;SDS011;36740;48.698;11.472;2022-12-18T00:27:52;62.92;;;41.38;;
50769;SDS011;36740;48.698;11.472;2022-12-18T00:30:38;59.88;;;37.97;;
50769;SDS011;36740;48.698;11.472;2022-12-18T00:33:24;60.97;;;39.65;;
50769;SDS011;36740;48.698;11.472;2022-12-18T00:36:10;53.88;;;37.72;;
50769;SDS011;36740;48.698;11.472;2022-12-18T00:38:57;74.30;;;37.35;;
50769;SDS011;36740;48.698;11.472;2022-12-18T00:41:43;69.68;;;37.78;;
50769;SDS011;36740;48.698;11.472;2022-12-18T00:44:47;65.00;;;39.42;;
50769;SDS011;36740;48.698;11.472;2022-12-18T00:47:33;65.80;;;40.17;;
50769;SDS011;36740;48.698;11.472;2022-12-18T00:50:19;58.70;;;35.65;;
50769;SDS011;36740;48.698;11.472;2022-12-18T00:53:04;89.15;;;45.88;;
50769;SDS011;36740;48.698;11.472;2022-12-18T00:55:50;54.47;;;40.10;;
50769;SDS011;36740;48.698;11.472;2022-12-18T00:58:35;52.95;;;34.67;;
50769;SDS011;36740;48.698;11.472;2022-12-18T01:01:21;55.67;;;35.85;;
50769;SDS011;36740;48.698;11.472;2022-12-18T01:04:07;67.82;;;40.13;;
50769;SDS011;36740;48.698;11.472;2022-12-18T01:06:52;70.13;;;34.53;;
50769;SDS011;36740;48.698;11.472;2022-12-18T01:09:38;64.03;;;33.90;;
50769;SDS011;36740;48.698;11.472;2022-12-18T01:12:23;46.10;;;32.28;;
50769;SDS011;36740;48.698;11.472;2022-12-18T01:15:10;46.47;;;30.27;;
50769;SDS011;36740;48.698;11.472;2022-12-18T01:17:56;57.15;;;34.33;;
50769;SDS011;36740;48.698;11.472;2022-12-18T01:20:41;47.88;;;31.75;;
50769;SDS011;36740;48.698;11.472;2022-12-18T01:23:27;55.00;;;32.50;;
50769;SDS011;36740;48.698;11.472;2022-12-18T01:26:14;52.63;;;26.27;;
50769;SDS011;36740;48.698;11.472;2022-12-18T01:28:59;49.70;;;33.20;;
50769;SDS011;36740;48.698;11.472;2022-12-18T01:31:45;49.25;;;29.08;;
50769;SDS011;36740;48.698;11.472;2022-12-18T01:34:31;47.03;;;32.10;;
50769;SDS011;36740;48.698;11.472;2022-12-18T01:37:17;51.60;;;28.13;;
50769;SDS011;36740;48.698;11.472;2022-12-18T01:40:03;57.95;;;30.63;;
50769;SDS011;36740;48.698;11.472;2022-12-18T01:42:52;54.13;;;34.13;;
50769;SDS011;36740;48.698;11.472;2022-12-18T01:45:38;57.22;;;29.25;;
50769;SDS011;36740;48.698;11.472;2022-12-18T01:48:23;36.45;;;27.50;;
50769;SDS011;36740;48.698;11.472;2022-12-18T01:51:09;49.25;;;32.65;;
50769;SDS011;36740;48.698;11.472;2022-12-18T01:53:55;52.60;;;33.00;;
50769;SDS011;36740;48.698;11.472;2022-12-18T01:56:41;52.22;;;29.60;;
50769;SDS011;36740;48.698;11.472;2022-12-18T01:59:27;51.50;;;34.65;;
50769;SDS011;36740;48.698;11.472;2022-12-18T02:02:13;40.65;;;23.52;;
50769;SDS011;36740;48.698;11.472;2022-12-18T02:04:59;42.15;;;35.08;;
50769;SDS011;36740;48.698;11.472;2022-12-18T02:13:36;66.65;;;34.72;;
50769;SDS011;36740;48.698;11.472;2022-12-18T02:16:32;59.80;;;33.78;;
50769;SDS011;36740;48.698;11.472;2022-12-18T02:23:04;52.33;;;29.23;;
50769;SDS011;36740;48.698;11.472;2022-12-18T02:28:25;47.80;;;30.98;;
50769;SDS011;36740;48.698;11.472;2022-12-18T02:31:15;50.20;;;28.88;;
50769;SDS011;36740;48.698;11.472;2022-12-18T02:34:03;58.08;;;30.88;;
50769;SDS011;36740;48.698;11.472;2022-12-18T02:36:50;50.72;;;31.27;;
50769;SDS011;36740;48.698;11.472;2022-12-18T02:39:37;42.83;;;26.58;;
50769;SDS011;36740;48.698;11.472;2022-12-18T02:42:23;53.90;;;27.83;;
50769;SDS011;36740;48.698;11.472;2022-12-18T02:45:09;56.50;;;26.88;;
50769;SDS011;36740;48.698;11.472;2022-12-18T02:47:55;45.05;;;24.65;;
50769;SDS011;36740;48.698;11.472;2022-12-18T02:51:15;45.90;;;23.83;;
50769;SDS011;36740;48.698;11.472;2022-12-18T02:54:02;42.47;;;23.85;;
50769;SDS011;36740;48.698;11.472;2022-12-18T02:56:51;39.22;;;19.20;;
50769;SDS011;36740;48.698;11.472;2022-12-18T02:59:41;34.65;;;19.55;;
50769;SDS011;36740;48.698;11.472;2022-12-18T03:08:31;32.95;;;24.85;;
50769;SDS011;36740;48.698;11.472;2022-12-18T03:11:18;46.83;;;23.25;;
50769;SDS011;36740;48.698;11.472;2022-12-18T03:14:24;34.90;;;17.17;;
50769;SDS011;36740;48.698;11.472;2022-12-18T03:17:13;32.17;;;18.92;;
50769;SDS011;36740;48.698;11.472;2022-12-18T03:20:03;36.15;;;22.13;;
50769;SDS011;36740;48.698;11.472;2022-12-18T03:22:51;38.47;;;19.73;;
50769;SDS011;36740;48.698;11.472;2022-12-18T03:25:39;44.63;;;20.13;;
50769;SDS011;36740;48.698;11.472;2022-12-18T03:28:26;31.17;;;21.92;;
50769;SDS011;36740;48.698;11.472;2022-12-18T03:31:14;31.25;;;18.73;;
50769;SDS011;36740;48.698;11.472;2022-12-18T03:34:01;37.50;;;24.45;;
50769;SDS011;36740;48.698;11.472;2022-12-18T03:36:48;29.27;;;20.77;;
50769;SDS011;36740;48.698;11.472;2022-12-18T03:39:34;43.95;;;22.60;;
50769;SDS011;36740;48.698;11.472;2022-12-18T03:42:37;37.08;;;19.40;;
50769;SDS011;36740;48.698;11.472;2022-12-18T03:45:36;36.35;;;20.95;;
50769;SDS011;36740;48.698;11.472;2022-12-18T03:49:08;37.42;;;24.45;;
50769;SDS011;36740;48.698;11.472;2022-12-18T03:54:27;36.58;;;22.38;;
50769;SDS011;36740;48.698;11.472;2022-12-18T03:57:15;37.42;;;17.20;;
50769;SDS011;36740;48.698;11.472;2022-12-18T04:00:09;40.97;;;18.75;;
50769;SDS011;36740;48.698;11.472;2022-12-18T04:02:56;43.97;;;23.95;;
50769;SDS011;36740;48.698;11.472;2022-12-18T04:05:42;33.00;;;18.42;;
50769;SDS011;36740;48.698;11.472;2022-12-18T04:08:28;33.78;;;16.92;;
50769;SDS011;36740;48.698;11.472;2022-12-18T04:11:14;32.15;;;21.55;;
50769;SDS011;36740;48.698;11.472;2022-12-18T04:14:00;49.20;;;30.13;;
50769;SDS011;36740;48.698;11.472;2022-12-18T04:16:46;27.02;;;16.80;;
50769;SDS011;36740;48.698;11.472;2022-12-18T04:19:31;39.90;;;20.17;;
50769;SDS011;36740;48.698;11.472;2022-12-18T04:22:17;34.88;;;21.45;;
50769;SDS011;36740;48.698;11.472;2022-12-18T04:25:03;38.47;;;21.45;;
50769;SDS011;36740;48.698;11.472;2022-12-18T04:27:48;35.60;;;18.63;;
50769;SDS011;36740;48.698;11.472;2022-12-18T04:30:34;36.75;;;17.73;;
50769;SDS011;36740;48.698;11.472;2022-12-18T04:33:20;32.72;;;18.67;;
50769;SDS011;36740;48.698;11.472;2022-12-18T04:36:05;37.35;;;21.17;;
50769;SDS011;36740;48.698;11.472;2022-12-18T04:38:51;38.15;;;20.65;;
50769;SDS011;36740;48.698;11.472;2022-12-18T04:41:37;38.92;;;22.90;;
50769;SDS011;36740;48.698;11.472;2022-12-18T04:44:22;41.00;;;21.52;;
50769;SDS011;36740;48.698;11.472;2022-12-18T04:47:08;27.63;;;16.55;;
50769;SDS011;36740;48.698;11.472;2022-12-18T04:49:54;36.03;;;18.17;;
50769;SDS011;36740;48.698;11.472;2022-12-18T04:52:39;31.40;;;21.42;;
50769;SDS011;36740;48.698;11.472;2022-12-18T04:55:25;29.00;;;18.65;;
50769;SDS011;36740;48.698;11.472;2022-12-18T04:58:11;27.67;;;18.98;;
50769;SDS011;36740;48.698;11.472;2022-12-18T05:00:56;31.48;;;19.27;;
50769;SDS011;36740;48.698;11.472;2022-12-18T05:03:42;27.05;;;19.70;;
50769;SDS011;36740;48.698;11.472;2022-12-18T05:06:28;32.20;;;15.57;;
50769;SDS011;36740;48.698;11.472;2022-12-18T05:09:14;40.03;;;20.23;;
50769;SDS011;36740;48.698;11.472;2022-12-18T05:11:59;38.17;;;22.23;;
50769;SDS011;36740;48.698;11.472;2022-12-18T05:14:45;29.83;;;15.88;;
50769;SDS011;36740;48.698;11.472;2022-12-18T05:17:31;26.27;;;17.95;;
50769;SDS011;36740;48.698;11.472;2022-12-18T05:20:16;35.05;;;18.48;;
50769;SDS011;36740;48.698;11.472;2022-12-18T05:23:03;52.15;;;24.20;;
50769;SDS011;36740;48.698;11.472;2022-12-18T05:25:52;30.85;;;19.40;;
50769;SDS011;36740;48.698;11.472;2022-12-18T05:28:38;30.92;;;20.35;;
50769;SDS011;36740;48.698;11.472;2022-12-18T05:31:23;30.38;;;16.20;;
50769;SDS011;36740;48.698;11.472;2022-12-18T05:34:09;30.58;;;15.63;;
50769;SDS011;36740;48.698;11.472;2022-12-18T05:36:55;32.97;;;21.38;;
50769;SDS011;36740;48.698;11.472;2022-12-18T05:39:40;42.40;;;22.50;;
50769;SDS011;36740;48.698;11.472;2022-12-18T05:42:26;30.92;;;18.55;;
50769;SDS011;36740;48.698;11.472;2022-12-18T05:45:12;32.58;;;19.20;;
50769;SDS011;36740;48.698;11.472;2022-12-18T05:47:57;43.45;;;25.33;;
50769;SDS011;36740;48.698;11.472;2022-12-18T05:50:43;30.33;;;18.92;;
50769;SDS011;36740;48.698;11.472;2022-12-18T05:53:30;43.00;;;22.75;;
50769;SDS011;36740;48.698;11.472;2022-12-18T05:56:18;38.08;;;20.55;;
50769;SDS011;36740;48.698;11.472;2022-12-18T05:59:04;38.63;;;19.80;;
50769;SDS011;36740;48.698;11.472;2022-12-18T06:01:49;50.25;;;23.48;;
50769;SDS011;36740;48.698;11.472;2022-12-18T06:04:35;30.70;;;20.23;;
50769;SDS011;36740;48.698;11.472;2022-12-18T06:07:21;34.67;;;22.85;;
50769;SDS011;36740;48.698;11.472;2022-12-18T06:10:06;36.35;;;20.55;;
50769;SDS011;36740;48.698;11.472;2022-12-18T06:12:52;36.88;;;22.58;;
50769;SDS011;36740;48.698;11.472;2022-12-18T06:15:38;36.90;;;18.17;;
50769;SDS011;36740;48.698;11.472;2022-12-18T06:18:23;39.72;;;20.17;;
50769;SDS011;36740;48.698;11.472;2022-12-18T06:21:09;27.58;;;17.23;;
50769;SDS011;36740;48.698;11.472;2022-12-18T06:23:55;41.03;;;20.42;;
50769;SDS011;36740;48.698;11.472;2022-12-18T06:26:41;37.53;;;20.65;;
50769;SDS011;36740;48.698;11.472;2022-12-18T06:29:26;36.28;;;18.30;;
50769;SDS011;36740;48.698;11.472;2022-12-18T06:32:12;24.63;;;19.73;;
50769;SDS011;36740;48.698;11.472;2022-12-18T06:34:58;35.78;;;21.70;;
50769;SDS011;36740;48.698;11.472;2022-12-18T06:37:43;37.75;;;20.85;;
50769;SDS011;36740;48.698;11.472;2022-12-18T06:40:29;31.08;;;16.70;;
50769;SDS011;36740;48.698;11.472;2022-12-18T06:43:14;24.23;;;15.05;;
50769;SDS011;36740;48.698;11.472;2022-12-18T06:46:00;39.85;;;23.10;;
50769;SDS011;36740;48.698;11.472;2022-12-18T06:48:47;30.08;;;21.48;;
50769;SDS011;36740;48.698;11.472;2022-12-18T06:51:35;40.40;;;20.48;;
50769;SDS011;36740;48.698;11.472;2022-12-18T06:54:21;28.73;;;18.88;;
50769;SDS011;36740;48.698;11.472;2022-12-18T06:57:07;34.58;;;19.67;;
50769;SDS011;36740;48.698;11.472;2022-12-18T06:59:52;40.05;;;18.23;;
50769;SDS011;36740;48.698;11.472;2022-12-18T07:02:38;51.22;;;21.08;;
50769;SDS011;36740;48.698;11.472;2022-12-18T07:05:24;40.53;;;24.90;;
50769;SDS011;36740;48.698;11.472;2022-12-18T07:08:09;31.83;;;22.38;;
50769;SDS011;36740;48.698;11.472;2022-12-18T07:10:55;29.98;;;23.88;;
50769;SDS011;36740;48.698;11.472;2022-12-18T07:13:41;44.50;;;21.95;;
50769;SDS011;36740;48.698;11.472;2022-12-18T07:16:30;43.47;;;26.80;;
50769;SDS011;36740;48.698;11.472;2022-12-18T07:19:16;28.30;;;19.42;;
50769;SDS011;36740;48.698;11.472;2022-12-18T07:22:02;32.35;;;18.05;;
50769;SDS011;36740;48.698;11.472;2022-12-18T07:24:47;29.50;;;17.65;;
50769;SDS011;36740;48.698;11.472;2022-12-18T07:27:36;40.40;;;23.35;;
50769;SDS011;36740;48.698;11.472;2022-12-18T07:30:22;29.85;;;18.00;;
50769;SDS011;36740;48.698;11.472;2022-12-18T07:33:07;43.13;;;23.73;;
50769;SDS011;36740;48.698;11.472;2022-12-18T07:35:53;32.47;;;22.30;;
50769;SDS011;36740;48.698;11.472;2022-12-18T07:38:38;32.97;;;19.25;;
50769;SDS011;36740;48.698;11.472;2022-12-18T07:41:25;41.13;;;22.00;;
50769;SDS011;36740;48.698;11.472;2022-12-18T07:44:11;33.38;;;19.45;;
50769;SDS011;36740;48.698;11.472;2022-12-18T07:46:56;38.88;;;22.70;;
50769;SDS011;36740;48.698;11.472;2022-12-18T07:49:42;28.67;;;18.42;;
50769;SDS011;36740;48.698;11.472;2022-12-18T07:52:28;33.92;;;18.20;;
50769;SDS011;36740;48.698;11.472;2022-12-18T07:55:13;33.80;;;20.15;;
50769;SDS011;36740;48.698;11.472;2022-12-18T07:58:02;31.20;;;20.48;;
50769;SDS011;36740;48.698;11.472;2022-12-18T08:00:51;33.58;;;18.63;;
50769;SDS011;36740;48.698;11.472;2022-12-18T08:03:38;37.63;;;18.45;;
50769;SDS011;36740;48.698;11.472;2022-12-18T08:06:24;29.63;;;18.63;;
50769;SDS011;36740;48.698;11.472;2022-12-18T08:09:10;32.85;;;21.88;;
50769;SDS011;36740;48.698;11.472;2022-12-18T08:11:55;23.35;;;17.35;;
50769;SDS011;36740;48.698;11.472;2022-12-18T08:14:41;33.22;;;19.77;;
50769;SDS011;36740;48.698;11.472;2022-12-18T08:17:28;27.90;;;18.10;;
50769;SDS011;36740;48.698;11.472;2022-12-18T08:20:13;31.30;;;19.05;;
50769;SDS011;36740;48.698;11.472;2022-12-18T08:23:00;27.80;;;19.48;;
50769;SDS011;36740;48.698;11.472;2022-12-18T08:25:46;36.45;;;17.42;;
50769;SDS011;36740;48.698;11.472;2022-12-18T08:28:31;30.02;;;17.65;;
50769;SDS011;36740;48.698;11.472;2022-12-18T08:31:17;36.75;;;22.95;;
50769;SDS011;36740;48.698;11.472;2022-12-18T08:34:07;27.55;;;17.15;;
50769;SDS011;36740;48.698;11.472;2022-12-18T08:36:54;30.63;;;16.25;;
50769;SDS011;36740;48.698;11.472;2022-12-18T08:39:40;29.90;;;17.27;;
50769;SDS011;36740;48.698;11.472;2022-12-18T08:42:28;30.58;;;16.90;;
50769;SDS011;36740;48.698;11.472;2022-12-18T08:45:33;29.75;;;19.70;;
50769;SDS011;36740;48.698;11.472;2022-12-18T08:48:19;41.15;;;17.33;;
50769;SDS011;36740;48.698;11.472;2022-12-18T08:51:04;25.65;;;15.70;;
50769;SDS011;36740;48.698;11.472;2022-12-18T08:53:51;20.38;;;15.80;;
50769;SDS011;36740;48.698;11.472;2022-12-18T08:56:36;34.20;;;17.55;;
50769;SDS011;36740;48.698;11.472;2022-12-18T08:59:22;37.42;;;19.48;;
50769;SDS011;36740;48.698;11.472;2022-12-18T09:02:11;26.98;;;16.25;;
50769;SDS011;36740;48.698;11.472;2022-12-18T09:04:57;27.02;;;15.90;;
50769;SDS011;36740;48.698;11.472;2022-12-18T09:07:42;24.65;;;17.08;;
50769;SDS011;36740;48.698;11.472;2022-12-18T09:10:28;25.92;;;14.60;;
50769;SDS011;36740;48.698;11.472;2022-12-18T09:13:14;33.38;;;19.08;;
50769;SDS011;36740;48.698;11.472;2022-12-18T09:16:00;32.00;;;18.55;;
50769;SDS011;36740;48.698;11.472;2022-12-18T09:18:48;38.28;;;16.38;;
50769;SDS011;36740;48.698;11.472;2022-12-18T09:21:34;27.63;;;18.33;;
50769;SDS011;36740;48.698;11.472;2022-12-18T09:24:20;25.35;;;14.40;;
50769;SDS011;36740;48.698;11.472;2022-12-18T09:27:07;23.30;;;16.98;;
50769;SDS011;36740;48.698;11.472;2022-12-18T09:29:53;22.05;;;13.27;;
50769;SDS011;36740;48.698;11.472;2022-12-18T09:32:38;38.58;;;18.35;;
50769;SDS011;36740;48.698;11.472;2022-12-18T09:35:24;29.40;;;15.50;;
50769;SDS011;36740;48.698;11.472;2022-12-18T09:38:13;31.00;;;19.42;;
50769;SDS011;36740;48.698;11.472;2022-12-18T09:41:46;25.40;;;17.48;;
50769;SDS011;36740;48.698;11.472;2022-12-18T09:44:27;26.52;;;18.42;;
50769;SDS011;36740;48.698;11.472;2022-12-18T09:50:04;24.85;;;18.08;;
50769;SDS011;36740;48.698;11.472;2022-12-18T09:52:51;26.00;;;16.88;;
50769;SDS011;36740;48.698;11.472;2022-12-18T09:55:42;35.20;;;16.73;;
50769;SDS011;36740;48.698;11.472;2022-12-18T09:58:32;28.52;;;18.02;;
50769;SDS011;36740;48.698;11.472;2022-12-18T10:01:23;32.25;;;20.10;;
50769;SDS011;36740;48.698;11.472;2022-12-18T10:04:09;19.08;;;14.82;;
50769;SDS011;36740;48.698;11.472;2022-12-18T10:10:16;26.70;;;17.40;;
50769;SDS011;36740;48.698;11.472;2022-12-18T10:13:19;28.23;;;16.27;;
50769;SDS011;36740;48.698;11.472;2022-12-18T10:16:14;31.67;;;17.50;;
50769;SDS011;36740;48.698;11.472;2022-12-18T10:24:56;37.47;;;16.20;;
50769;SDS011;36740;48.698;11.472;2022-12-18T10:27:44;34.78;;;18.55;;
50769;SDS011;36740;48.698;11.472;2022-12-18T10:30:30;25.92;;;14.60;;
50769;SDS011;36740;48.698;11.472;2022-12-18T10:33:18;27.52;;;17.70;;
50769;SDS011;36740;48.698;11.472;2022-12-18T10:36:03;23.70;;;14.90;;
50769;SDS011;36740;48.698;11.472;2022-12-18T10:38:50;28.00;;;17.08;;
50769;SDS011;36740;48.698;11.472;2022-12-18T10:41:36;28.50;;;14.15;;
50769;SDS011;36740;48.698;11.472;2022-12-18T10:44:22;21.30;;;16.40;;
50769;SDS011;36740;48.698;11.472;2022-12-18T10:47:11;28.70;;;18.60;;
50769;SDS011;36740;48.698;11.472;2022-12-18T10:49:57;25.48;;;15.65;;
50769;SDS011;36740;48.698;11.472;2022-12-18T10:52:43;33.42;;;18.58;;
50769;SDS011;36740;48.698;11.472;2022-12-18T10:55:35;23.63;;;15.57;;
50769;SDS011;36740;48.698;11.472;2022-12-18T11:01:10;28.88;;;16.52;;
50769;SDS011;36740;48.698;11.472;2022-12-18T11:07:00;27.70;;;15.65;;
50769;SDS011;36740;48.698;11.472;2022-12-18T11:09:59;23.88;;;15.05;;
50769;SDS011;36740;48.698;11.472;2022-12-18T11:12:45;28.23;;;15.52;;
50769;SDS011;36740;48.698;11.472;2022-12-18T11:15:31;28.95;;;15.98;;
50769;SDS011;36740;48.698;11.472;2022-12-18T11:18:22;39.10;;;13.95;;
50769;SDS011;36740;48.698;11.472;2022-12-18T11:21:10;30.95;;;18.80;;
50769;SDS011;36740;48.698;11.472;2022-12-18T11:23:56;22.48;;;14.32;;
50769;SDS011;36740;48.698;11.472;2022-12-18T11:26:42;22.45;;;15.45;;
50769;SDS011;36740;48.698;11.472;2022-12-18T11:29:31;28.85;;;15.73;;
50769;SDS011;36740;48.698;11.472;2022-12-18T11:38:21;33.65;;;14.25;;
50769;SDS011;36740;48.698;11.472;2022-12-18T11:44:11;23.85;;;15.25;;
50769;SDS011;36740;48.698;11.472;2022-12-18T11:47:03;33.55;;;20.27;;
50769;SDS011;36740;48.698;11.472;2022-12-18T11:49:52;24.08;;;13.88;;
50769;SDS011;36740;48.698;11.472;2022-12-18T11:52:40;32.90;;;14.98;;
50769;SDS011;36740;48.698;11.472;2022-12-18T12:01:46;27.13;;;15.70;;
50769;SDS011;36740;48.698;11.472;2022-12-18T12:07:38;22.08;;;16.15;;
50769;SDS011;36740;48.698;11.472;2022-12-18T12:10:43;27.45;;;15.63;;
50769;SDS011;36740;48.698;11.472;2022-12-18T12:25:15;26.50;;;13.70;;
50769;SDS011;36740;48.698;11.472;2022-12-18T12:31:39;26.55;;;15.13;;
50769;SDS011;36740;48.698;11.472;2022-12-18T12:39:50;20.52;;;15.77;;
50769;SDS011;36740;48.698;11.472;2022-12-18T12:42:41;27.88;;;15.43;;
50769;SDS011;36740;48.698;11.472;2022-12-18T12:46:06;23.48;;;18.35;;
50769;SDS011;36740;48.698;11.472;2022-12-18T12:48:53;25.98;;;14.40;;
50769;SDS011;36740;48.698;11.472;2022-12-18T12:51:40;24.55;;;14.85;;
50769;SDS011;36740;48.698;11.472;2022-12-18T12:54:26;27.98;;;17.52;;
50769;SDS011;36740;48.698;11.472;2022-12-18T12:57:16;30.27;;;17.92;;
50769;SDS011;36740;48.698;11.472;2022-12-18T13:00:13;25.67;;;16.98;;
50769;SDS011;36740;48.698;11.472;2022-12-18T13:03:08;33.83;;;14.05;;
50769;SDS011;36740;48.698;11.472;2022-12-18T13:06:02;30.67;;;15.73;;
50769;SDS011;36740;48.698;11.472;2022-12-18T13:08:59;19.98;;;13.90;;
50769;SDS011;36740;48.698;11.472;2022-12-18T13:11:46;31.13;;;14.95;;
50769;SDS011;36740;48.698;11.472;2022-12-18T13:14:51;22.00;;;15.98;;
50769;SDS011;36740;48.698;11.472;2022-12-18T13:17:37;24.55;;;15.55;;
50769;SDS011;36740;48.698;11.472;2022-12-18T13:20:22;27.98;;;16.83;;
50769;SDS011;36740;48.698;11.472;2022-12-18T13:28:55;27.65;;;17.42;;
50769;SDS011;36740;48.698;11.472;2022-12-18T13:34:28;21.58;;;13.68;;
50769;SDS011;36740;48.698;11.472;2022-12-18T13:37:58;23.40;;;15.13;;
50769;SDS011;36740;48.698;11.472;2022-12-18T13:40:52;24.48;;;14.43;;
50769;SDS011;36740;48.698;11.472;2022-12-18T13:49:22;18.90;;;15.35;;
50769;SDS011;36740;48.698;11.472;2022-12-18T13:52:22;30.92;;;13.25;;
50769;SDS011;36740;48.698;11.472;2022-12-18T13:55:14;27.15;;;15.45;;
50769;SDS011;36740;48.698;11.472;2022-12-18T13:58:04;33.92;;;16.80;;
50769;SDS011;36740;48.698;11.472;2022-12-18T14:00:50;25.20;;;12.90;;
50769;SDS011;36740;48.698;11.472;2022-12-18T14:03:35;24.40;;;14.18;;
50769;SDS011;36740;48.698;11.472;2022-12-18T14:06:21;19.35;;;12.52;;
50769;SDS011;36740;48.698;11.472;2022-12-18T14:09:17;20.77;;;13.38;;
50769;SDS011;36740;48.698;11.472;2022-12-18T14:12:18;24.50;;;14.35;;
50769;SDS011;36740;48.698;11.472;2022-12-18T14:25:04;22.02;;;15.82;;
50769;SDS011;36740;48.698;11.472;2022-12-18T14:27:59;31.48;;;17.95;;
50769;SDS011;36740;48.698;11.472;2022-12-18T14:30:47;24.77;;;18.08;;
50769;SDS011;36740;48.698;11.472;2022-12-18T14:33:33;28.10;;;16.63;;
50769;SDS011;36740;48.698;11.472;2022-12-18T14:36:20;24.45;;;13.93;;
50769;SDS011;36740;48.698;11.472;2022-12-18T14:39:13;31.00;;;16.45;;
50769;SDS011;36740;48.698;11.472;2022-12-18T14:42:02;25.33;;;13.07;;
50769;SDS011;36740;48.698;11.472;2022-12-18T14:44:47;27.95;;;14.73;;
50769;SDS011;36740;48.698;11.472;2022-12-18T14:47:33;22.05;;;15.75;;
50769;SDS011;36740;48.698;11.472;2022-12-18T14:50:19;18.30;;;12.45;;
50769;SDS011;36740;48.698;11.472;2022-12-18T14:53:05;28.98;;;15.70;;
50769;SDS011;36740;48.698;11.472;2022-12-18T14:55:50;25.67;;;13.82;;
50769;SDS011;36740;48.698;11.472;2022-12-18T14:58:37;27.45;;;14.52;;
50769;SDS011;36740;48.698;11.472;2022-12-18T15:04:32;23.48;;;12.98;;
50769;SDS011;36740;48.698;11.472;2022-12-18T15:07:25;22.38;;;13.88;;
50769;SDS011;36740;48.698;11.472;2022-12-18T15:10:16;25.65;;;17.92;;
50769;SDS011;36740;48.698;11.472;2022-12-18T15:15:48;32.78;;;16.33;;
50769;SDS011;36740;48.698;11.472;2022-12-18T15:18:35;23.42;;;12.75;;
50769;SDS011;36740;48.698;11.472;2022-12-18T15:21:29;27.17;;;14.60;;
50769;SDS011;36740;48.698;11.472;2022-12-18T15:24:18;30.83;;;15.77;;
50769;SDS011;36740;48.698;11.472;2022-12-18T15:27:03;22.50;;;14.95;;
50769;SDS011;36740;48.698;11.472;2022-12-18T15:33:16;23.73;;;16.95;;
50769;SDS011;36740;48.698;11.472;2022-12-18T15:36:00;33.30;;;19.88;;
50769;SDS011;36740;48.698;11.472;2022-12-18T15:38:46;20.90;;;12.48;;
50769;SDS011;36740;48.698;11.472;2022-12-18T15:41:39;38.97;;;14.40;;
50769;SDS011;36740;48.698;11.472;2022-12-18T15:44:48;33.67;;;16.02;;
50769;SDS011;36740;48.698;11.472;2022-12-18T15:47:45;30.10;;;18.95;;
50769;SDS011;36740;48.698;11.472;2022-12-18T15:57:39;33.17;;;14.88;;
50769;SDS011;36740;48.698;11.472;2022-12-18T16:04:33;23.15;;;14.43;;
50769;SDS011;36740;48.698;11.472;2022-12-18T16:21:03;24.98;;;14.02;;
50769;SDS011;36740;48.698;11.472;2022-12-18T16:23:54;32.17;;;15.80;;
50769;SDS011;36740;48.698;11.472;2022-12-18T16:26:40;28.88;;;15.52;;
50769;SDS011;36740;48.698;11.472;2022-12-18T16:29:27;33.30;;;17.90;;
50769;SDS011;36740;48.698;11.472;2022-12-18T16:32:17;31.67;;;14.63;;
50769;SDS011;36740;48.698;11.472;2022-12-18T16:35:03;24.00;;;15.52;;
50769;SDS011;36740;48.698;11.472;2022-12-18T16:37:49;26.60;;;15.80;;
50769;SDS011;36740;48.698;11.472;2022-12-18T16:40:35;28.83;;;15.43;;
50769;SDS011;36740;48.698;11.472;2022-12-18T16:43:40;31.23;;;14.50;;
50769;SDS011;36740;48.698;11.472;2022-12-18T16:46:26;24.02;;;12.95;;
50769;SDS011;36740;48.698;11.472;2022-12-18T16:49:12;30.33;;;15.45;;
50769;SDS011;36740;48.698;11.472;2022-12-18T16:51:58;26.08;;;15.52;;
50769;SDS011;36740;48.698;11.472;2022-12-18T16:54:44;25.67;;;14.50;;
50769;SDS011;36740;48.698;11.472;2022-12-18T16:57:30;26.02;;;15.45;;
50769;SDS011;36740;48.698;11.472;2022-12-18T17:00:15;25.10;;;15.70;;
50769;SDS011;36740;48.698;11.472;2022-12-18T17:03:02;24.60;;;15.45;;
50769;SDS011;36740;48.698;11.472;2022-12-18T17:05:48;34.88;;;15.43;;
50769;SDS011;36740;48.698;11.472;2022-12-18T17:08:33;35.35;;;18.17;;
50769;SDS011;36740;48.698;11.472;2022-12-18T17:11:19;29.73;;;17.30;;
50769;SDS011;36740;48.698;11.472;2022-12-18T17:14:06;22.50;;;16.75;;
50769;SDS011;36740;48.698;11.472;2022-12-18T17:16:52;36.38;;;18.67;;
50769;SDS011;36740;48.698;11.472;2022-12-18T17:19:38;32.53;;;18.15;;
50769;SDS011;36740;48.698;11.472;2022-12-18T17:22:23;36.20;;;19.35;;
50769;SDS011;36740;48.698;11.472;2022-12-18T17:25:09;26.90;;;18.40;;
50769;SDS011;36740;48.698;11.472;2022-12-18T17:27:54;33.75;;;17.63;;
50769;SDS011;36740;48.698;11.472;2022-12-18T17:30:43;26.05;;;17.58;;
50769;SDS011;36740;48.698;11.472;2022-12-18T17:33:29;20.33;;;13.82;;
50769;SDS011;36740;48.698;11.472;2022-12-18T17:36:15;26.85;;;17.60;;
50769;SDS011;36740;48.698;11.472;2022-12-18T17:39:01;32.33;;;21.08;;
50769;SDS011;36740;48.698;11.472;2022-12-18T17:41:47;22.23;;;15.52;;
50769;SDS011;36740;48.698;11.472;2022-12-18T17:44:34;22.88;;;14.82;;
50769;SDS011;36740;48.698;11.472;2022-12-18T17:47:19;29.65;;;17.80;;
50769;SDS011;36740;48.698;11.472;2022-12-18T17:50:05;22.20;;;14.80;;
50769;SDS011;36740;48.698;11.472;2022-12-18T17:52:54;27.42;;;14.48;;
50769;SDS011;36740;48.698;11.472;2022-12-18T17:55:40;23.70;;;15.70;;
50769;SDS011;36740;48.698;11.472;2022-12-18T17:58:28;35.10;;;17.77;;
50769;SDS011;36740;48.698;11.472;2022-12-18T18:01:14;20.83;;;15.77;;
50769;SDS011;36740;48.698;11.472;2022-12-18T18:04:01;26.13;;;15.73;;
50769;SDS011;36740;48.698;11.472;2022-12-18T18:06:47;32.33;;;16.05;;
50769;SDS011;36740;48.698;11.472;2022-12-18T18:09:33;26.92;;;18.38;;
50769;SDS011;36740;48.698;11.472;2022-12-18T18:12:20;33.78;;;17.42;;
50769;SDS011;36740;48.698;11.472;2022-12-18T18:15:24;29.23;;;17.42;;
50769;SDS011;36740;48.698;11.472;2022-12-18T18:18:09;27.25;;;16.77;;
50769;SDS011;36740;48.698;11.472;2022-12-18T18:20:59;26.42;;;14.50;;
50769;SDS011;36740;48.698;11.472;2022-12-18T18:23:47;21.13;;;16.08;;